Time;durP1;ratioP1;P1;durP2;ratioP2;P2;SDS_P1;SDS_P2;PMS_P1;PMS_P2;Temp;Humidity;BMP_temperature;BMP_pressure;BME280_temperature;BME280_humidity;BME280_pressure;Samples;Min_cycle;Max_cycle;Signal;HPM_P1;HPM_P2
2021/09/11 00:00:29;;;;;;;10.97;10.07;;;18.60;98.10;;;;;;5138746;27;20171;-45
2021/09/11 00:02:55;;;;;;;11.60;10.63;;;18.60;98.20;;;;;;5138316;28;20551;-45
2021/09/11 00:05:23;;;;;;;11.40;10.50;;;18.60;98.20;;;;;;5135637;27;20416;-45
2021/09/11 00:07:49;;;;;;;11.90;10.90;;;18.60;98.10;;;;;;5136209;27;20171;-45
2021/09/11 00:10:16;;;;;;;11.77;10.57;;;18.60;98.10;;;;;;5136066;27;20835;-45
2021/09/11 00:12:42;;;;;;;10.73;9.93;;;18.70;98.20;;;;;;5137201;27;20753;-45
2021/09/11 00:15:11;;;;;;;11.83;10.73;;;18.70;98.30;;;;;;5140532;27;20416;-46
2021/09/11 00:17:37;;;;;;;11.35;10.40;;;18.80;98.10;;;;;;5123450;27;20412;-45
2021/09/11 00:20:04;;;;;;;11.90;10.80;;;18.80;98.10;;;;;;5142176;27;20542;-45
2021/09/11 00:22:30;;;;;;;12.27;11.27;;;18.80;97.90;;;;;;5142711;27;20422;-45
2021/09/11 00:24:56;;;;;;;10.63;9.73;;;18.60;98.20;;;;;;5142687;27;20693;-45
2021/09/11 00:27:21;;;;;;;10.80;9.90;;;18.50;98.60;;;;;;5142690;27;20486;-45
2021/09/11 00:29:47;;;;;;;11.47;10.57;;;18.50;99.00;;;;;;5142344;27;20775;-45
2021/09/11 00:32:12;;;;;;;10.83;9.93;;;18.40;99.30;;;;;;5142407;27;20621;-45
2021/09/11 00:34:38;;;;;;;10.80;9.90;;;18.30;99.50;;;;;;5142199;27;20175;-45
2021/09/11 00:37:04;;;;;;;11.20;10.20;;;18.20;99.90;;;;;;5142312;27;20216;-45
2021/09/11 00:39:30;;;;;;;10.80;9.93;;;18.10;99.90;;;;;;5124379;27;20189;-45
2021/09/11 00:41:55;;;;;;;11.43;10.52;;;18.00;99.90;;;;;;5141202;27;20855;-45
2021/09/11 00:44:22;;;;;;;10.60;9.68;;;18.00;99.90;;;;;;5141266;27;20640;-45
2021/09/11 00:46:47;;;;;;;12.30;11.20;;;17.90;99.90;;;;;;5141411;27;20646;-45
2021/09/11 00:49:15;;;;;;;11.23;10.23;;;17.80;99.90;;;;;;5141347;27;20427;-45
2021/09/11 00:51:40;;;;;;;11.60;10.70;;;17.70;99.90;;;;;;5141081;27;20172;-45
2021/09/11 00:54:06;;;;;;;11.33;10.33;;;17.70;99.90;;;;;;5141245;27;20716;-45
2021/09/11 00:56:33;;;;;;;10.70;9.80;;;17.70;99.90;;;;;;5123898;27;20413;-45
2021/09/11 00:59:00;;;;;;;10.90;10.00;;;17.70;99.90;;;;;;5142081;27;20446;-45
2021/09/11 01:01:26;;;;;;;11.80;10.70;;;17.70;99.90;;;;;;5141496;27;20512;-45
2021/09/11 01:03:51;;;;;;;11.70;10.70;;;17.70;99.90;;;;;;5141089;27;20427;-45
2021/09/11 01:06:17;;;;;;;10.50;9.50;;;17.70;99.90;;;;;;5142007;27;20464;-44
2021/09/11 01:08:43;;;;;;;11.17;10.10;;;17.60;99.90;;;;;;5140964;27;20492;-45
2021/09/11 01:11:09;;;;;;;11.97;10.97;;;17.70;99.90;;;;;;5141461;27;20427;-45
2021/09/11 01:13:36;;;;;;;11.17;10.17;;;17.60;99.90;;;;;;5123589;27;20171;-45
2021/09/11 01:16:02;;;;;;;11.03;10.13;;;17.60;99.90;;;;;;5141572;27;20500;-45
2021/09/11 01:18:28;;;;;;;11.80;10.80;;;17.70;99.90;;;;;;5141479;27;20420;-45
2021/09/11 01:20:55;;;;;;;10.00;9.20;;;17.70;99.90;;;;;;5141656;27;20499;-45
2021/09/11 01:23:21;;;;;;;11.00;10.10;;;17.70;99.90;;;;;;5140812;27;20201;-45
2021/09/11 01:25:47;;;;;;;12.07;10.80;;;17.70;99.90;;;;;;5140590;27;20464;-45
2021/09/11 01:28:14;;;;;;;11.80;10.70;;;17.70;99.90;;;;;;5141759;27;20409;-45
2021/09/11 01:30:40;;;;;;;10.30;9.47;;;17.70;99.90;;;;;;5141512;27;20730;-45
2021/09/11 01:33:06;;;;;;;11.20;10.30;;;17.70;99.90;;;;;;5122926;27;20416;-45
2021/09/11 01:35:32;;;;;;;10.53;9.73;;;17.80;99.90;;;;;;5140557;27;20431;-45
2021/09/11 01:37:57;;;;;;;12.20;11.10;;;17.80;99.90;;;;;;5140805;27;20491;-45
2021/09/11 01:40:23;;;;;;;12.10;11.10;;;17.80;99.90;;;;;;5140413;27;20258;-45
2021/09/11 01:42:49;;;;;;;11.90;10.93;;;17.80;99.90;;;;;;5140659;27;20182;-45
2021/09/11 01:45:18;;;;;;;11.40;10.40;;;17.80;99.90;;;;;;5140575;27;20187;-45
2021/09/11 01:47:44;;;;;;;12.90;11.70;;;17.80;99.90;;;;;;5141317;27;20199;-45
2021/09/11 01:50:13;;;;;;;11.37;10.47;;;17.70;99.90;;;;;;5140905;27;20520;-45
2021/09/11 01:52:39;;;;;;;12.20;11.10;;;17.60;99.90;;;;;;5141025;27;20455;-45
2021/09/11 01:55:07;;;;;;;12.93;11.77;;;17.60;99.90;;;;;;5140896;27;20500;-45
2021/09/11 01:57:37;;;;;;;11.67;10.73;;;17.60;99.90;;;;;;5141237;27;20405;-45
2021/09/11 02:00:06;;;;;;;13.10;11.97;;;17.50;99.90;;;;;;5140979;27;20447;-45
2021/09/11 02:02:31;;;;;;;12.67;11.50;;;17.50;99.90;;;;;;5140377;27;20519;-45
2021/09/11 02:04:57;;;;;;;12.13;11.13;;;17.50;99.90;;;;;;5140854;27;20519;-45
2021/09/11 02:07:22;;;;;;;10.27;9.47;;;17.50;99.90;;;;;;5140175;27;20695;-45
2021/09/11 02:09:48;;;;;;;10.73;9.90;;;17.50;99.90;;;;;;5139155;27;20171;-45
2021/09/11 02:12:13;;;;;;;10.80;10.00;;;17.50;99.90;;;;;;5139572;27;20177;-45
2021/09/11 02:14:39;;;;;;;11.93;10.87;;;17.50;99.90;;;;;;5120908;27;20968;-45
2021/09/11 02:17:05;;;;;;;10.80;9.90;;;17.60;99.90;;;;;;5120921;27;20182;-45
2021/09/11 02:19:32;;;;;;;10.50;9.70;;;17.60;99.90;;;;;;5138973;27;20596;-45
2021/09/11 02:21:59;;;;;;;10.23;9.37;;;17.60;99.90;;;;;;5139832;27;20421;-45
2021/09/11 02:24:24;;;;;;;10.20;9.30;;;17.70;99.90;;;;;;5139769;27;20424;-45
2021/09/11 02:26:50;;;;;;;11.30;10.20;;;17.70;99.90;;;;;;5139513;27;20456;-45
2021/09/11 02:29:16;;;;;;;11.50;9.00;;;17.80;99.90;;;;;;5139745;27;20170;-45
2021/09/11 02:31:42;;;;;;;9.47;8.53;;;17.80;99.90;;;;;;5137590;27;20182;-45
2021/09/11 02:34:07;;;;;;;10.57;9.63;;;17.80;99.90;;;;;;5137685;27;20178;-45
2021/09/11 02:36:33;;;;;;;10.40;9.50;;;17.70;99.90;;;;;;5137784;27;20588;-45
2021/09/11 02:38:59;;;;;;;10.20;9.30;;;17.70;99.90;;;;;;5138312;27;20637;-45
2021/09/11 02:41:24;;;;;;;10.00;9.13;;;17.60;99.90;;;;;;5138114;27;20182;-45
2021/09/11 02:43:50;;;;;;;10.40;9.50;;;17.60;99.90;;;;;;5138126;27;20679;-45
2021/09/11 02:46:16;;;;;;;10.20;9.30;;;17.50;99.90;;;;;;5138542;27;20210;-45
2021/09/11 02:48:41;;;;;;;9.80;8.90;;;17.40;99.90;;;;;;5139481;27;20168;-45
2021/09/11 02:51:07;;;;;;;8.93;8.20;;;17.40;99.90;;;;;;5139385;27;20622;-45
2021/09/11 02:53:33;;;;;;;9.10;8.40;;;17.50;99.90;;;;;;5139198;27;20223;-45
2021/09/11 02:55:58;;;;;;;8.87;8.17;;;17.50;99.90;;;;;;5139537;27;20183;-45
2021/09/11 02:58:24;;;;;;;8.83;8.03;;;17.50;99.90;;;;;;5139034;27;20178;-45
2021/09/11 03:00:51;;;;;;;9.33;8.53;;;17.50;99.90;;;;;;5139507;27;20715;-45
2021/09/11 03:03:17;;;;;;;8.83;8.10;;;17.60;99.90;;;;;;5139398;27;20416;-45
2021/09/11 03:05:42;;;;;;;9.43;8.63;;;17.60;99.90;;;;;;5139575;27;20465;-45
2021/09/11 03:08:08;;;;;;;8.13;7.43;;;17.60;99.90;;;;;;5140040;27;20183;-45
2021/09/11 03:10:34;;;;;;;7.95;7.35;;;17.70;99.90;;;;;;5139274;27;20177;-45
2021/09/11 03:12:59;;;;;;;7.30;6.70;;;17.70;99.90;;;;;;5139252;27;20545;-45
2021/09/11 03:15:25;;;;;;;7.63;6.93;;;17.70;99.90;;;;;;5139254;27;20420;-45
2021/09/11 03:17:51;;;;;;;8.23;7.43;;;17.70;99.90;;;;;;5139585;27;20177;-45
2021/09/11 03:20:16;;;;;;;8.57;7.87;;;17.60;99.90;;;;;;5138980;27;20262;-45
2021/09/11 03:22:42;;;;;;;9.00;8.20;;;17.50;99.90;;;;;;5138884;27;20423;-44
2021/09/11 03:25:08;;;;;;;8.43;7.60;;;17.50;99.90;;;;;;5139078;27;20259;-45
2021/09/11 03:27:34;;;;;;;8.40;7.70;;;17.50;99.90;;;;;;5139364;27;20206;-45
2021/09/11 03:30:00;;;;;;;7.60;6.97;;;17.50;99.90;;;;;;5138910;27;20175;-45
2021/09/11 03:32:25;;;;;;;8.03;7.33;;;17.60;99.90;;;;;;5139217;27;20866;-45
2021/09/11 03:34:51;;;;;;;8.77;7.97;;;17.60;99.90;;;;;;5138690;27;20588;-45
2021/09/11 03:37:17;;;;;;;8.00;7.30;;;17.60;99.90;;;;;;5138500;27;20179;-45
2021/09/11 03:39:42;;;;;;;8.23;7.53;;;17.70;99.90;;;;;;5137118;27;20179;-46
2021/09/11 03:42:08;;;;;;;7.70;7.10;;;17.70;99.90;;;;;;5137318;27;20194;-46
2021/09/11 03:44:33;;;;;;;8.03;7.40;;;17.70;99.90;;;;;;5137684;27;20709;-45
2021/09/11 03:46:59;;;;;;;8.43;7.70;;;17.80;99.90;;;;;;5136206;27;20249;-46
2021/09/11 03:49:24;;;;;;;7.93;7.33;;;17.80;99.90;;;;;;5137214;27;20175;-46
2021/09/11 03:51:50;;;;;;;7.90;7.20;;;17.80;99.90;;;;;;5119376;28;20182;-46
2021/09/11 03:54:16;;;;;;;7.67;7.07;;;17.80;99.90;;;;;;5137801;27;20231;-45
2021/09/11 03:56:41;;;;;;;7.13;6.53;;;17.80;99.90;;;;;;5138474;27;20548;-46
2021/09/11 03:59:07;;;;;;;7.93;7.23;;;17.80;99.90;;;;;;5138727;27;20171;-46
2021/09/11 04:01:33;;;;;;;7.57;6.83;;;17.80;99.90;;;;;;5138853;27;20563;-46
2021/09/11 04:03:58;;;;;;;8.17;7.27;;;17.80;99.90;;;;;;5138715;27;20444;-48
2021/09/11 04:06:24;;;;;;;8.20;7.53;;;17.70;99.90;;;;;;5138336;28;20306;-48
2021/09/11 04:08:49;;;;;;;7.60;6.90;;;17.70;99.90;;;;;;5138505;27;20171;-48
2021/09/11 04:11:15;;;;;;;7.67;6.97;;;17.70;99.90;;;;;;5138772;27;20186;-48
2021/09/11 04:13:41;;;;;;;7.70;7.10;;;17.70;99.90;;;;;;5137154;28;20186;-48
2021/09/11 04:16:08;;;;;;;7.47;6.87;;;17.70;99.90;;;;;;5136168;27;20258;-48
2021/09/11 04:18:33;;;;;;;7.70;7.10;;;17.60;99.90;;;;;;5118025;28;20633;-47
2021/09/11 04:21:00;;;;;;;8.00;7.20;;;17.70;99.90;;;;;;5135208;27;20425;-48
2021/09/11 04:23:26;;;;;;;7.03;6.33;;;17.60;99.90;;;;;;5136422;27;20187;-47
2021/09/11 04:25:51;;;;;;;7.03;6.43;;;17.60;99.90;;;;;;5136082;27;20456;-48
2021/09/11 04:28:17;;;;;;;7.07;6.37;;;17.60;99.90;;;;;;5137069;28;20176;-48
2021/09/11 04:30:43;;;;;;;6.90;6.30;;;17.50;99.90;;;;;;5119074;28;20456;-47
2021/09/11 04:33:08;;;;;;;6.80;6.10;;;17.50;99.90;;;;;;5137653;27;20212;-48
2021/09/11 04:35:34;;;;;;;6.70;6.20;;;17.50;99.90;;;;;;5136443;27;20254;-47
2021/09/11 04:38:00;;;;;;;6.90;6.30;;;17.50;99.90;;;;;;5117689;28;20840;-48
2021/09/11 04:40:27;;;;;;;6.20;5.70;;;17.50;99.90;;;;;;5135835;27;20179;-48
2021/09/11 04:42:54;;;;;;;6.30;5.80;;;17.60;99.90;;;;;;5135846;27;20428;-45
2021/09/11 04:45:20;;;;;;;6.40;5.70;;;17.50;99.90;;;;;;5136036;27;20865;-47
2021/09/11 04:47:46;;;;;;;6.60;6.10;;;17.50;99.90;;;;;;5136327;27;20412;-47
2021/09/11 04:50:11;;;;;;;5.80;5.40;;;17.60;99.90;;;;;;5119076;28;20171;-47
2021/09/11 04:52:37;;;;;;;6.33;5.73;;;17.50;99.90;;;;;;5137596;27;20175;-47
2021/09/11 04:55:03;;;;;;;6.37;5.77;;;17.50;99.90;;;;;;5138297;27;20226;-48
2021/09/11 04:57:29;;;;;;;6.40;5.80;;;17.50;99.90;;;;;;5138123;27;20179;-47
2021/09/11 04:59:55;;;;;;;7.30;5.87;;;17.40;99.90;;;;;;5140835;27;20519;-48
2021/09/11 05:02:20;;;;;;;6.50;5.73;;;17.30;99.90;;;;;;5141968;27;20262;-48
2021/09/11 05:04:46;;;;;;;6.33;5.80;;;17.40;99.90;;;;;;5142128;27;20257;-48
2021/09/11 05:07:12;;;;;;;5.70;5.20;;;17.40;99.90;;;;;;5141492;27;20710;-47
2021/09/11 05:09:37;;;;;;;6.37;5.90;;;17.30;99.90;;;;;;5141474;27;20420;-48
2021/09/11 05:12:04;;;;;;;6.60;5.90;;;17.30;99.90;;;;;;5142136;27;20183;-47
2021/09/11 05:14:31;;;;;;;6.70;6.20;;;17.30;99.90;;;;;;5141184;27;20179;-48
2021/09/11 05:16:58;;;;;;;6.30;5.80;;;17.30;99.90;;;;;;5140491;27;20488;-48
2021/09/11 05:19:23;;;;;;;6.50;5.95;;;17.30;99.90;;;;;;5140315;27;20465;-48
2021/09/11 05:21:50;;;;;;;6.63;6.03;;;17.20;99.90;;;;;;5140546;27;20183;-48
2021/09/11 05:24:16;;;;;;;6.23;5.67;;;17.10;99.90;;;;;;5140560;27;20171;-47
2021/09/11 05:26:43;;;;;;;6.60;6.00;;;17.00;99.90;;;;;;5122469;27;20468;-47
2021/09/11 05:29:09;;;;;;;6.35;5.80;;;17.00;99.90;;;;;;5139290;27;20472;-48
2021/09/11 05:31:34;;;;;;;5.88;5.47;;;17.10;99.90;;;;;;5125848;27;20174;-47
2021/09/11 05:34:00;;;;;;;5.70;5.20;;;17.10;99.90;;;;;;5139388;27;20177;-48
2021/09/11 05:36:26;;;;;;;5.60;5.10;;;17.20;99.90;;;;;;5139338;27;20232;-48
2021/09/11 05:38:52;;;;;;;6.10;5.60;;;17.30;99.90;;;;;;5139354;27;20170;-48
2021/09/11 05:41:18;;;;;;;6.40;5.90;;;17.40;99.90;;;;;;5139734;27;20179;-48
2021/09/11 05:43:43;;;;;;;5.87;5.27;;;17.40;99.90;;;;;;5140209;27;20744;-48
2021/09/11 05:46:09;;;;;;;6.10;5.57;;;17.50;99.90;;;;;;5139924;27;20198;-48
2021/09/11 05:48:35;;;;;;;5.63;5.20;;;17.50;99.90;;;;;;5140027;27;20182;-48
2021/09/11 05:51:01;;;;;;;5.13;4.70;;;17.50;99.90;;;;;;5139927;27;20431;-47
2021/09/11 05:53:27;;;;;;;5.40;4.60;;;17.60;99.90;;;;;;5128796;27;20231;-48
2021/09/11 05:55:53;;;;;;;5.50;5.00;;;17.60;99.90;;;;;;5119195;28;20824;-48
2021/09/11 05:58:20;;;;;;;4.77;4.37;;;17.60;99.90;;;;;;5118182;28;20692;-48
2021/09/11 06:00:46;;;;;;;6.57;4.90;;;17.70;99.90;;;;;;5123992;27;20198;-48
2021/09/11 06:03:12;;;;;;;4.80;4.40;;;17.80;99.90;;;;;;5129251;27;20445;-48
2021/09/11 06:05:38;;;;;;;4.67;4.27;;;17.90;99.90;;;;;;5126145;27;20901;-48
2021/09/11 06:08:06;;;;;;;4.20;3.83;;;17.90;99.90;;;;;;5128398;27;20407;-48
2021/09/11 06:10:31;;;;;;;4.50;4.10;;;18.00;99.90;;;;;;5127892;27;20203;-48
2021/09/11 06:12:59;;;;;;;5.20;4.20;;;18.00;99.90;;;;;;5130819;27;20469;-48
2021/09/11 06:15:25;;;;;;;4.50;4.10;;;18.10;99.90;;;;;;5122841;27;20164;-48
2021/09/11 06:17:52;;;;;;;3.90;3.60;;;18.10;99.90;;;;;;5125711;27;20473;-47
2021/09/11 06:20:18;;;;;;;4.05;3.75;;;18.10;99.90;;;;;;5136876;27;20432;-48
2021/09/11 06:22:44;;;;;;;4.80;4.40;;;18.20;99.90;;;;;;5137860;27;20436;-48
2021/09/11 06:25:10;;;;;;;4.30;3.87;;;18.30;99.90;;;;;;5139342;27;20175;-48
2021/09/11 06:27:36;;;;;;;4.27;3.87;;;18.30;99.90;;;;;;5139547;27;20889;-48
2021/09/11 06:30:02;;;;;;;5.20;4.70;;;18.30;99.90;;;;;;5135439;27;20421;-48
2021/09/11 06:32:30;;;;;;;4.77;4.30;;;18.30;99.90;;;;;;5130476;27;20262;-48
2021/09/11 06:34:56;;;;;;;4.90;4.50;;;18.20;99.90;;;;;;5136338;27;20409;-48
2021/09/11 06:37:21;;;;;;;4.90;4.50;;;18.20;99.90;;;;;;5133889;27;20715;-48
2021/09/11 06:39:47;;;;;;;5.17;4.70;;;18.40;99.90;;;;;;5120626;27;20176;-48
2021/09/11 06:42:14;;;;;;;6.50;5.90;;;18.40;99.90;;;;;;5122550;27;20288;-48
2021/09/11 06:44:40;;;;;;;6.77;6.20;;;18.30;99.90;;;;;;5110882;27;20185;-47
2021/09/11 06:47:06;;;;;;;6.43;5.83;;;18.40;99.90;;;;;;5122117;27;20491;-48
2021/09/11 06:49:32;;;;;;;5.37;4.97;;;18.70;99.90;;;;;;5109561;28;20551;-47
2021/09/11 06:51:58;;;;;;;6.40;5.80;;;19.00;99.90;;;;;;5107369;27;20184;-48
2021/09/11 06:54:24;;;;;;;5.95;5.45;;;19.30;99.90;;;;;;5132673;27;20223;-48
2021/09/11 06:56:50;;;;;;;6.03;5.53;;;19.20;99.90;;;;;;5130458;27;20663;-49
2021/09/11 06:59:15;;;;;;;6.57;5.97;;;19.50;99.90;;;;;;5117992;27;20278;-48
2021/09/11 07:01:41;;;;;;;5.93;5.40;;;19.60;99.90;;;;;;5117368;28;20262;-48
2021/09/11 07:04:07;;;;;;;6.40;5.87;;;19.80;99.90;;;;;;5098719;28;20504;-47
2021/09/11 07:06:32;;;;;;;5.97;5.47;;;20.00;99.90;;;;;;5117019;28;20212;-48
2021/09/11 07:08:58;;;;;;;7.40;6.80;;;20.30;99.90;;;;;;5116446;28;20171;-48
2021/09/11 07:11:24;;;;;;;5.93;5.47;;;20.30;99.90;;;;;;5117040;28;20263;-48
2021/09/11 07:13:49;;;;;;;6.33;5.73;;;20.40;99.90;;;;;;5134790;27;20179;-48
2021/09/11 07:16:15;;;;;;;6.27;5.70;;;20.60;99.90;;;;;;5136753;27;20179;-48
2021/09/11 07:18:41;;;;;;;7.03;6.17;;;20.80;99.90;;;;;;5136934;27;20420;-48
2021/09/11 07:21:06;;;;;;;5.97;5.37;;;20.90;99.80;;;;;;5119207;27;20215;-48
2021/09/11 07:23:32;;;;;;;6.37;5.83;;;21.10;99.40;;;;;;5136891;27;20193;-48
2021/09/11 07:25:58;;;;;;;6.33;5.83;;;21.30;98.70;;;;;;5136428;27;20460;-48
2021/09/11 07:28:24;;;;;;;6.10;5.53;;;21.30;98.80;;;;;;5118163;27;20760;-48
2021/09/11 07:30:50;;;;;;;7.50;6.90;;;21.40;98.30;;;;;;5136689;27;20431;-49
2021/09/11 07:33:16;;;;;;;6.80;6.30;;;21.40;98.60;;;;;;5136876;27;20265;-48
2021/09/11 07:35:41;;;;;;;6.30;5.70;;;21.50;98.10;;;;;;5136657;27;20178;-48
2021/09/11 07:38:07;;;;;;;6.30;5.70;;;21.40;98.40;;;;;;5135565;27;20893;-47
2021/09/11 07:40:34;;;;;;;5.40;5.00;;;21.20;98.00;;;;;;5134177;27;20195;-48
2021/09/11 07:43:01;;;;;;;5.73;5.33;;;21.00;98.70;;;;;;5136047;27;20199;-48
2021/09/11 07:45:26;;;;;;;5.10;4.60;;;21.00;99.10;;;;;;5118119;27;20463;-48
2021/09/11 07:47:52;;;;;;;5.90;5.40;;;21.20;99.00;;;;;;5137095;27;20923;-48
2021/09/11 07:50:25;;;;;;;6.13;5.63;;;21.20;99.10;;;;;;5136931;27;20186;-48
2021/09/11 07:52:51;;;;;;;6.13;5.63;;;21.40;98.80;;;;;;5136975;27;20424;-48
2021/09/11 07:55:16;;;;;;;5.50;5.10;;;21.70;97.60;;;;;;5135711;28;20453;-48
2021/09/11 07:57:42;;;;;;;5.27;4.77;;;21.90;96.90;;;;;;5135162;27;20231;-48
2021/09/11 08:00:09;;;;;;;5.20;4.70;;;21.60;96.90;;;;;;5135481;27;20179;-48
2021/09/11 08:02:35;;;;;;;7.90;5.20;;;22.30;96.20;;;;;;5135505;27;20198;-48
2021/09/11 08:05:01;;;;;;;5.13;4.70;;;22.40;96.00;;;;;;5117085;28;20538;-48
2021/09/11 08:07:28;;;;;;;5.00;4.60;;;22.10;96.00;;;;;;5134666;27;20207;-48
2021/09/11 08:09:54;;;;;;;8.00;5.47;;;22.20;96.20;;;;;;5136485;27;20168;-48
2021/09/11 08:12:21;;;;;;;4.83;4.43;;;22.60;96.50;;;;;;5137038;27;20691;-48
2021/09/11 08:14:47;;;;;;;5.60;5.10;;;23.30;96.20;;;;;;5136691;27;20424;-48
2021/09/11 08:17:12;;;;;;;6.53;5.83;;;23.80;93.60;;;;;;5119064;28;20854;-48
2021/09/11 08:19:38;;;;;;;4.90;4.50;;;24.00;93.80;;;;;;5136709;28;20656;-48
2021/09/11 08:22:04;;;;;;;5.50;5.10;;;24.50;93.20;;;;;;5134758;27;20171;-48
2021/09/11 08:24:30;;;;;;;5.70;5.10;;;24.10;93.00;;;;;;5132983;27;20457;-48
2021/09/11 08:26:55;;;;;;;5.23;4.63;;;24.30;93.00;;;;;;5132608;27;20213;-48
2021/09/11 08:29:21;;;;;;;5.90;5.40;;;24.40;93.20;;;;;;5135004;27;20391;-48
2021/09/11 08:31:47;;;;;;;5.47;4.97;;;24.00;93.00;;;;;;5135185;28;20167;-48
2021/09/11 08:34:12;;;;;;;5.80;5.30;;;24.10;92.80;;;;;;5136915;27;20167;-48
2021/09/11 08:36:38;;;;;;;4.90;4.50;;;24.10;93.00;;;;;;5140355;27;20175;-48
2021/09/11 08:39:04;;;;;;;5.73;5.23;;;24.00;93.40;;;;;;5140610;27;20490;-48
2021/09/11 08:41:31;;;;;;;6.23;5.53;;;24.20;92.90;;;;;;5141383;27;20175;-48
2021/09/11 08:43:59;;;;;;;4.53;4.23;;;24.00;93.40;;;;;;5140991;27;20444;-48
2021/09/11 08:46:26;;;;;;;4.53;4.10;;;23.80;92.40;;;;;;5140893;27;20633;-48
2021/09/11 08:48:52;;;;;;;4.30;4.00;;;23.90;92.90;;;;;;5140487;27;20424;-47
2021/09/11 08:51:17;;;;;;;5.40;4.83;;;24.60;92.20;;;;;;5138703;27;20429;-48
2021/09/11 08:53:43;;;;;;;4.97;4.47;;;25.30;91.30;;;;;;5138899;27;20251;-41
2021/09/11 08:56:09;;;;;;;4.87;4.37;;;26.20;90.40;;;;;;5138880;27;20587;-40
2021/09/11 08:58:34;;;;;;;4.00;3.70;;;27.10;88.70;;;;;;5138300;27;20177;-40
2021/09/11 09:01:01;;;;;;;4.00;3.47;;;28.30;86.50;;;;;;5140159;27;20254;-41
2021/09/11 09:03:37;;;;;;;3.57;3.27;;;28.90;80.80;;;;;;5140140;27;20190;-40
2021/09/11 09:06:20;;;;;;;3.57;3.27;;;29.00;77.40;;;;;;5140901;27;20460;-42
2021/09/11 09:09:12;;;;;;;3.43;3.13;;;28.80;78.10;;;;;;5140508;27;20411;-39
2021/09/11 09:11:42;;;;;;;4.93;4.50;;;28.50;79.20;;;;;;5135156;27;20428;-41
2021/09/11 09:14:18;;;;;;;3.90;3.60;;;28.10;78.00;;;;;;5138792;27;20659;-40
2021/09/11 09:16:46;;;;;;;3.40;3.10;;;27.80;78.90;;;;;;5120986;27;20424;-44
2021/09/11 09:19:11;;;;;;;3.73;3.43;;;27.30;78.40;;;;;;5138904;27;20479;-39
2021/09/11 09:21:38;;;;;;;5.07;3.90;;;26.70;80.90;;;;;;5139548;27;20869;-41
2021/09/11 09:24:06;;;;;;;3.30;3.00;;;26.20;82.20;;;;;;5139747;27;20175;-40
2021/09/11 09:26:52;;;;;;;3.40;3.07;;;25.80;82.90;;;;;;5140794;27;20581;-39
2021/09/11 09:29:18;;;;;;;3.60;3.27;;;25.70;84.50;;;;;;5139269;27;20417;-39
2021/09/11 09:31:45;;;;;;;4.33;3.90;;;26.00;84.00;;;;;;5140431;27;20561;-41
2021/09/11 09:34:27;;;;;;;3.70;3.20;;;26.70;85.40;;;;;;5138734;27;20396;-41
2021/09/11 09:36:57;;;;;;;4.50;3.97;;;27.30;84.50;;;;;;5137621;27;20493;-42
2021/09/11 09:39:23;;;;;;;3.90;3.10;;;27.60;82.10;;;;;;5138322;27;20420;-40
2021/09/11 09:41:51;;;;;;;3.63;3.27;;;27.70;78.50;;;;;;5136962;27;20420;-39
2021/09/11 09:44:20;;;;;;;3.60;3.03;;;26.90;78.70;;;;;;5119747;27;20430;-40
2021/09/11 09:46:47;;;;;;;3.87;3.57;;;26.80;80.20;;;;;;5137562;27;20249;-42
2021/09/11 09:49:20;;;;;;;3.90;3.60;;;27.30;80.80;;;;;;5137686;27;20432;-43
2021/09/11 09:51:48;;;;;;;5.50;3.60;;;28.50;76.90;;;;;;5138142;27;20436;-41
2021/09/11 09:54:15;;;;;;;3.50;3.20;;;29.50;77.50;;;;;;5135863;27;20850;-42
2021/09/11 09:56:41;;;;;;;4.47;3.63;;;30.70;72.60;;;;;;5136594;27;20417;-40
2021/09/11 09:59:07;;;;;;;4.43;3.67;;;31.50;72.30;;;;;;5138404;27;20438;-40
2021/09/11 10:01:33;;;;;;;3.80;3.30;;;31.80;67.50;;;;;;5119474;27;20469;-40
2021/09/11 10:04:21;;;;;;;4.60;3.70;;;31.70;64.70;;;;;;5118317;27;20821;-40
2021/09/11 10:07:02;;;;;;;5.50;3.77;;;30.60;66.40;;;;;;5118741;27;20464;-41
2021/09/11 10:09:29;;;;;;;4.00;3.70;;;29.40;68.70;;;;;;5136647;27;20424;-40
2021/09/11 10:11:55;;;;;;;8.80;4.13;;;28.40;70.40;;;;;;5136998;27;20419;-41
2021/09/11 10:14:27;;;;;;;3.60;3.30;;;27.50;73.30;;;;;;5134171;27;20413;-43
2021/09/11 10:17:01;;;;;;;4.03;3.55;;;26.90;76.50;;;;;;5116086;27;20725;-40
2021/09/11 10:19:28;;;;;;;4.50;4.10;;;26.40;77.80;;;;;;5135034;27;20580;-40
2021/09/11 10:22:18;;;;;;;4.47;4.07;;;25.90;79.70;;;;;;5136429;27;20432;-43
2021/09/11 10:24:48;;;;;;;4.67;3.73;;;25.40;83.80;;;;;;5136649;27;20404;-42
2021/09/11 10:27:23;;;;;;;8.20;4.90;;;24.90;87.60;;;;;;5137017;27;20456;-40
2021/09/11 10:29:54;;;;;;;7.87;4.73;;;24.50;89.60;;;;;;5136490;27;20633;-43
2021/09/11 10:32:35;;;;;;;3.60;3.30;;;24.30;91.40;;;;;;5136202;27;20444;-42
2021/09/11 10:35:20;;;;;;;4.80;4.40;;;24.10;92.40;;;;;;5135187;27;20542;-41
2021/09/11 10:37:47;;;;;;;4.60;4.17;;;24.20;93.50;;;;;;5136751;27;20417;-43
2021/09/11 10:40:17;;;;;;;5.30;4.40;;;24.30;94.70;;;;;;5135806;27;20421;-42
2021/09/11 10:43:04;;;;;;;5.23;4.20;;;24.30;94.70;;;;;;5136717;27;20417;-41
2021/09/11 10:45:43;;;;;;;9.70;5.20;;;24.30;94.80;;;;;;5118875;27;20868;-40
2021/09/11 10:48:34;;;;;;;22.50;5.90;;;24.30;95.30;;;;;;5118465;27;20431;-40
2021/09/11 10:51:29;;;;;;;22.37;6.80;;;24.10;95.00;;;;;;5137069;27;20553;-39
2021/09/11 10:54:28;;;;;;;5.63;4.50;;;23.90;95.10;;;;;;5114512;28;20759;-39
2021/09/11 10:56:59;;;;;;;29.43;6.30;;;23.50;95.20;;;;;;5115807;28;20433;-40
2021/09/11 10:59:33;;;;;;;24.10;5.07;;;23.10;94.70;;;;;;5114479;28;20462;-41
2021/09/11 11:02:14;;;;;;;11.90;3.80;;;22.90;94.90;;;;;;5114815;28;20445;-39
2021/09/11 11:04:49;;;;;;;12.20;4.50;;;22.40;95.90;;;;;;5114266;28;20429;-39
2021/09/11 11:07:18;;;;;;;33.80;5.10;;;21.90;96.80;;;;;;5116137;28;20472;-41
2021/09/11 11:09:48;;;;;;;12.23;3.50;;;21.50;97.90;;;;;;5117169;28;20707;-40
2021/09/11 11:12:22;;;;;;;18.60;4.20;;;21.20;98.90;;;;;;5117797;28;20625;-39
2021/09/11 11:14:48;;;;;;;9.93;3.30;;;21.00;99.90;;;;;;5118223;28;20464;-40
2021/09/11 11:17:15;;;;;;;16.30;3.70;;;20.80;99.90;;;;;;5117534;28;20845;-40
2021/09/11 11:19:46;;;;;;;11.87;3.90;;;20.80;99.90;;;;;;5116122;28;20418;-43
2021/09/11 11:22:14;;;;;;;3.83;2.77;;;20.70;99.90;;;;;;5115566;28;20441;-43
2021/09/11 11:24:46;;;;;;;4.03;2.97;;;20.70;99.90;;;;;;5115822;28;20422;-40
2021/09/11 11:27:14;;;;;;;6.57;2.90;;;20.70;99.90;;;;;;5114129;28;20456;-42
2021/09/11 11:29:43;;;;;;;3.10;2.73;;;20.80;99.90;;;;;;5115461;28;20512;-42
2021/09/11 11:32:09;;;;;;;6.30;2.37;;;20.80;99.90;;;;;;5116089;28;20413;-40
2021/09/11 11:34:37;;;;;;;12.07;3.90;;;20.90;99.90;;;;;;5115664;28;20414;-41
2021/09/11 11:37:10;;;;;;;7.27;3.10;;;21.00;99.90;;;;;;5116094;28;20414;-41
2021/09/11 11:39:38;;;;;;;7.10;3.63;;;21.10;99.90;;;;;;5116910;28;20486;-41
2021/09/11 11:42:10;;;;;;;4.30;3.90;;;21.10;99.90;;;;;;5117139;28;20445;-40
2021/09/11 11:45:00;;;;;;;3.77;3.47;;;21.20;99.90;;;;;;5116398;28;20194;-40
2021/09/11 11:47:44;;;;;;;6.13;3.78;;;21.10;99.90;;;;;;5116938;28;20492;-40
2021/09/11 11:50:23;;;;;;;4.70;4.20;;;21.10;99.90;;;;;;5117557;28;20272;-41
2021/09/11 11:53:00;;;;;;;4.67;4.27;;;21.10;99.90;;;;;;5117982;28;20409;-42
2021/09/11 11:55:31;;;;;;;5.18;4.13;;;21.10;99.90;;;;;;5138353;27;20460;-43
2021/09/11 11:58:22;;;;;;;4.83;4.23;;;21.10;99.90;;;;;;5138314;27;20512;-42
2021/09/11 12:00:50;;;;;;;4.17;3.73;;;21.20;99.90;;;;;;5137803;27;20421;-42
2021/09/11 12:03:37;;;;;;;5.03;3.77;;;21.30;99.90;;;;;;5137233;27;20739;-39
2021/09/11 12:06:05;;;;;;;5.07;4.20;;;21.40;99.90;;;;;;5105575;27;20487;-41
2021/09/11 12:08:36;;;;;;;4.20;3.80;;;21.40;99.90;;;;;;5138546;27;20419;-40
2021/09/11 12:11:03;;;;;;;5.23;4.83;;;21.60;99.90;;;;;;5141121;27;20431;-39
2021/09/11 12:13:29;;;;;;;5.07;4.43;;;21.70;99.90;;;;;;5140108;27;20413;-41
2021/09/11 12:15:55;;;;;;;5.30;4.33;;;21.90;99.90;;;;;;5140804;27;20427;-40
2021/09/11 12:18:20;;;;;;;5.40;4.90;;;22.20;99.90;;;;;;5106605;27;20849;-40
2021/09/11 12:20:52;;;;;;;5.07;4.57;;;22.50;99.90;;;;;;5122841;27;20247;-41
2021/09/11 12:23:20;;;;;;;5.50;4.83;;;22.90;99.90;;;;;;5142420;27;20255;-39
2021/09/11 12:26:09;;;;;;;4.70;4.30;;;23.70;99.90;;;;;;5141590;27;20436;-42
2021/09/11 12:28:44;;;;;;;4.72;4.32;;;24.40;98.50;;;;;;5142318;27;20424;-42
2021/09/11 12:31:20;;;;;;;4.53;4.13;;;24.70;96.40;;;;;;5142362;27;20544;-41
2021/09/11 12:33:48;;;;;;;6.53;4.00;;;24.60;97.20;;;;;;5142593;27;20412;-41
2021/09/11 12:36:35;;;;;;;4.37;3.57;;;25.40;95.50;;;;;;5141841;27;20442;-41
2021/09/11 12:39:06;;;;;;;4.80;3.50;;;26.20;94.20;;;;;;5141904;27;20416;-41
2021/09/11 12:41:33;;;;;;;3.60;3.30;;;27.30;92.50;;;;;;5142306;27;20423;-42
2021/09/11 12:44:00;;;;;;;3.03;2.73;;;28.50;90.90;;;;;;5141592;27;20409;-42
2021/09/11 12:46:26;;;;;;;3.17;2.97;;;29.60;86.10;;;;;;5123853;27;20905;-39